createdAt,value
2018-04-15T00:01:18.787Z,81.19
2018-04-15T00:03:46.179Z,81.28
2018-04-15T00:06:13.576Z,81.97
2018-04-15T00:08:40.962Z,82.45
2018-04-15T00:11:08.359Z,82.12
2018-04-15T00:13:35.739Z,82.46
2018-04-15T00:16:03.126Z,82.06
2018-04-15T00:18:30.511Z,83.08
2018-04-15T00:20:57.907Z,83.52
2018-04-15T00:23:25.331Z,83.62
2018-04-15T00:25:52.791Z,83.88
2018-04-15T00:28:20.179Z,84.37
2018-04-15T00:30:47.979Z,84.99
2018-04-15T00:33:15.373Z,85.48
2018-04-15T00:35:42.759Z,85.37
2018-04-15T00:38:10.151Z,85.62
2018-04-15T00:40:37.561Z,86.68
2018-04-15T00:43:04.951Z,86.61
2018-04-15T00:45:32.335Z,87.03
2018-04-15T00:47:59.727Z,87.32
2018-04-15T00:50:27.115Z,87.07
2018-04-15T00:52:54.579Z,87.68
2018-04-15T00:55:21.969Z,87.97
2018-04-15T00:57:49.363Z,88.00
2018-04-15T01:00:16.754Z,88.29
2018-04-15T01:02:44.174Z,88.76
2018-04-15T01:05:11.567Z,89.15
2018-04-15T01:07:38.960Z,89.62
2018-04-15T01:10:06.350Z,89.71
2018-04-15T01:12:33.738Z,90.34
2018-04-15T01:15:01.139Z,90.66
2018-04-15T01:17:28.532Z,91.11
2018-04-15T01:19:55.922Z,90.76
2018-04-15T01:22:23.311Z,91.11
2018-04-15T01:24:50.711Z,91.71
2018-04-15T01:27:18.096Z,91.46
2018-04-15T01:29:45.494Z,91.48
2018-04-15T01:32:12.887Z,92.11
2018-04-15T01:34:40.287Z,92.60
2018-04-15T01:37:07.663Z,92.86
2018-04-15T01:39:35.063Z,93.10
2018-04-15T01:42:02.459Z,92.51
2018-04-15T01:44:29.846Z,92.84
2018-04-15T01:46:57.244Z,93.10
2018-04-15T01:49:24.634Z,93.61
2018-04-15T01:51:52.027Z,94.03
2018-04-15T01:54:19.419Z,94.03
2018-04-15T01:56:46.819Z,94.60
2018-04-15T01:59:14.203Z,94.70
2018-04-15T02:01:41.599Z,94.76
2018-04-15T02:04:08.989Z,95.13
2018-04-15T02:06:36.564Z,95.28
2018-04-15T02:09:03.947Z,95.67
2018-04-15T02:11:31.336Z,95.76
2018-04-15T02:13:58.734Z,95.84
2018-04-15T02:16:26.123Z,96.46
2018-04-15T02:18:53.522Z,96.30
2018-04-15T02:21:20.911Z,96.53
2018-04-15T02:23:48.307Z,96.75
2018-04-15T02:26:15.692Z,97.29
2018-04-15T02:28:43.088Z,96.89
2018-04-15T02:31:10.475Z,97.07
2018-04-15T02:33:37.883Z,97.50
2018-04-15T02:36:05.265Z,98.15
2018-04-15T02:38:32.659Z,97.71
2018-04-15T02:41:00.056Z,97.80
2018-04-15T02:43:27.459Z,97.86
2018-04-15T02:45:54.844Z,98.04
2018-04-15T02:48:22.311Z,98.00
2018-04-15T02:50:49.703Z,98.01
2018-04-15T02:53:17.093Z,97.90
2018-04-15T02:55:44.487Z,98.05
2018-04-15T02:58:11.875Z,98.11
2018-04-15T03:00:39.275Z,97.97
2018-04-15T03:03:06.720Z,98.01
2018-04-15T03:05:34.118Z,97.96
2018-04-15T03:08:01.504Z,98.10
2018-04-15T03:10:28.902Z,97.94
2018-04-15T03:12:56.747Z,97.98
2018-04-15T03:15:24.138Z,98.14
2018-04-15T03:17:51.603Z,98.26
2018-04-15T03:20:19.007Z,98.32
2018-04-15T03:22:46.403Z,98.52
2018-04-15T03:25:13.790Z,98.90
2018-04-15T03:27:41.634Z,98.88
2018-04-15T03:30:09.027Z,98.68
2018-04-15T03:32:36.422Z,98.67
2018-04-15T03:35:03.811Z,98.77
2018-04-15T03:37:31.198Z,98.84
2018-04-15T03:39:58.583Z,98.76
2018-04-15T03:42:25.974Z,98.50
2018-04-15T03:44:53.367Z,98.46
2018-04-15T03:47:20.751Z,98.47
2018-04-15T03:49:48.139Z,98.27
2018-04-15T03:52:15.546Z,98.77
2018-04-15T03:54:42.926Z,98.82
2018-04-15T03:57:10.311Z,98.79
2018-04-15T03:59:37.748Z,98.78
2018-04-15T04:02:05.143Z,98.94
2018-04-15T04:04:32.531Z,99.00
2018-04-15T04:06:59.919Z,98.88
2018-04-15T04:09:27.359Z,98.93
2018-04-15T04:11:54.750Z,98.82
2018-04-15T04:14:22.143Z,98.80
2018-04-15T04:16:49.538Z,98.80
2018-04-15T04:19:28.715Z,98.75
2018-04-15T04:22:07.886Z,98.73
2018-04-15T04:27:42.218Z,98.89
2018-04-15T04:30:09.611Z,98.92
2018-04-15T04:32:37.003Z,98.86
2018-04-15T04:35:04.418Z,98.71
2018-04-15T04:37:31.823Z,98.48
2018-04-15T04:39:59.203Z,98.57
2018-04-15T04:42:26.599Z,98.86
2018-04-15T04:44:53.982Z,99.01
2018-04-15T04:47:21.443Z,99.26
2018-04-15T04:49:48.838Z,99.22
2018-04-15T04:52:16.254Z,99.31
2018-04-15T04:54:43.642Z,99.21
2018-04-15T04:57:11.062Z,98.97
2018-04-15T04:59:38.489Z,99.25
2018-04-15T05:02:05.904Z,99.26
2018-04-15T05:04:33.288Z,99.55
2018-04-15T05:07:00.676Z,99.39
2018-04-15T05:09:28.071Z,99.45
2018-04-15T05:11:55.454Z,99.53
2018-04-15T05:14:22.860Z,99.41
2018-04-15T05:16:50.243Z,99.79
2018-04-15T05:19:17.648Z,99.72
2018-04-15T05:21:45.031Z,99.84
2018-04-15T05:24:12.423Z,100.00
2018-04-15T05:26:39.815Z,99.90
2018-04-15T05:29:07.203Z,99.94
2018-04-15T05:31:34.602Z,100.00
2018-04-15T05:34:01.998Z,100.00
2018-04-15T05:36:29.410Z,100.00
2018-04-15T05:38:56.810Z,100.00
2018-04-15T05:41:24.209Z,100.00
2018-04-15T05:43:51.637Z,100.00
2018-04-15T05:46:19.027Z,100.00
2018-04-15T05:48:46.424Z,100.00
2018-04-15T05:51:13.819Z,100.00
2018-04-15T05:53:41.223Z,100.00
2018-04-15T05:56:08.620Z,100.00
2018-04-15T05:58:36.044Z,100.00
2018-04-15T06:01:03.437Z,100.00
2018-04-15T06:03:30.824Z,100.00
2018-04-15T06:05:58.227Z,100.00
2018-04-15T06:08:25.619Z,100.00
2018-04-15T06:10:53.015Z,100.00
2018-04-15T06:13:20.499Z,100.00
2018-04-15T06:15:47.899Z,100.00
2018-04-15T06:18:15.282Z,100.00
2018-04-15T06:20:42.690Z,100.00
2018-04-15T06:23:10.082Z,100.00
2018-04-15T06:25:37.475Z,100.00
2018-04-15T06:28:04.891Z,100.00
2018-04-15T06:30:32.278Z,100.00
2018-04-15T06:32:59.681Z,100.00
2018-04-15T06:35:27.066Z,100.00
2018-04-15T06:37:54.458Z,100.00
2018-04-15T06:40:21.855Z,100.00
2018-04-15T06:42:49.247Z,100.00
2018-04-15T06:45:16.759Z,100.00
2018-04-15T06:47:44.029Z,100.00
2018-04-15T06:50:11.431Z,100.00
2018-04-15T06:52:38.823Z,100.00
2018-04-15T06:55:06.231Z,99.84
2018-04-15T06:57:33.620Z,99.49
2018-04-15T07:00:01.003Z,98.90
2018-04-15T07:02:28.391Z,98.89
2018-04-15T07:04:55.782Z,98.85
2018-04-15T07:07:23.180Z,98.73
2018-04-15T07:09:50.568Z,98.26
2018-04-15T07:12:18.298Z,97.82
2018-04-15T07:14:45.680Z,96.46
2018-04-15T07:17:13.067Z,96.58
2018-04-15T07:19:40.459Z,95.39
2018-04-15T07:22:07.839Z,95.69
2018-04-15T07:24:35.230Z,95.85
2018-04-15T07:27:02.615Z,94.70
2018-04-15T07:29:30.019Z,94.96
2018-04-15T07:31:57.477Z,94.42
2018-04-15T07:34:24.862Z,93.47
2018-04-15T07:36:52.259Z,93.66
2018-04-15T07:39:19.650Z,92.58
2018-04-15T07:41:47.051Z,92.02
2018-04-15T07:44:14.439Z,93.16
2018-04-15T07:46:41.831Z,94.37
2018-04-15T07:49:09.219Z,93.44
2018-04-15T07:51:36.619Z,89.90
2018-04-15T07:54:04.007Z,91.36
2018-04-15T07:56:31.393Z,90.89
2018-04-15T07:58:58.782Z,91.01
2018-04-15T08:01:26.168Z,88.36
2018-04-15T08:03:54.571Z,88.30
2018-04-15T08:06:21.963Z,88.65
2018-04-15T08:08:49.371Z,86.11
2018-04-15T08:11:16.751Z,86.94
2018-04-15T08:13:45.786Z,87.80
2018-04-15T08:16:13.171Z,88.99
2018-04-15T08:18:40.718Z,88.77
2018-04-15T08:21:08.106Z,89.50
2018-04-15T08:23:35.496Z,89.95
2018-04-15T08:26:02.891Z,87.49
2018-04-15T08:28:30.752Z,87.25
2018-04-15T08:30:58.131Z,87.23
2018-04-15T08:33:25.511Z,86.57
2018-04-15T08:35:52.919Z,87.79
2018-04-15T08:38:20.382Z,88.67
2018-04-15T08:40:47.809Z,87.43
2018-04-15T08:43:15.227Z,84.66
2018-04-15T08:45:42.590Z,86.54
2018-04-15T08:48:10.041Z,81.99
2018-04-15T08:50:37.431Z,83.61
2018-04-15T08:53:04.814Z,81.13
2018-04-15T08:55:32.191Z,80.86
2018-04-15T08:57:59.583Z,79.45
2018-04-15T09:00:27.005Z,78.72
2018-04-15T09:02:54.354Z,80.14
2018-04-15T09:05:21.747Z,80.62
2018-04-15T09:07:49.123Z,80.62
2018-04-15T09:10:16.523Z,79.55
2018-04-15T09:12:43.894Z,79.99
2018-04-15T09:15:11.283Z,80.11
2018-04-15T09:17:38.666Z,77.35
2018-04-15T09:20:06.062Z,76.53
2018-04-15T09:22:33.443Z,74.48
2018-04-15T09:25:00.815Z,76.06
2018-04-15T09:27:28.194Z,76.70
2018-04-15T09:29:55.570Z,75.85
2018-04-15T09:32:22.963Z,75.50
2018-04-15T09:34:50.335Z,74.83
2018-04-15T09:37:17.718Z,74.74
2018-04-15T09:39:45.146Z,74.88
2018-04-15T09:42:12.517Z,74.27
2018-04-15T09:44:39.891Z,74.47
2018-04-15T09:47:07.277Z,74.08
2018-04-15T09:49:34.653Z,72.48
2018-04-15T09:52:02.395Z,72.65
2018-04-15T09:54:29.770Z,68.15
2018-04-15T09:56:57.153Z,69.13
2018-04-15T09:59:24.538Z,65.67
2018-04-15T10:01:51.923Z,66.30
2018-04-15T10:04:19.299Z,65.93
2018-04-15T10:06:46.683Z,65.55
2018-04-15T10:09:14.066Z,68.98
2018-04-15T10:11:41.454Z,65.89
2018-04-15T10:14:08.851Z,66.69
2018-04-15T10:16:36.211Z,69.42
2018-04-15T10:19:03.591Z,71.07
2018-04-15T10:21:30.975Z,69.18
2018-04-15T10:23:58.379Z,69.41
2018-04-15T10:26:25.752Z,67.80
2018-04-15T10:28:53.128Z,65.99
2018-04-15T10:31:20.522Z,67.60
2018-04-15T10:33:47.907Z,64.26
2018-04-15T10:36:15.291Z,59.04
2018-04-15T10:38:42.735Z,61.34
2018-04-15T10:41:10.096Z,57.21
2018-04-15T10:43:37.468Z,57.41
2018-04-15T10:46:04.901Z,59.67
2018-04-15T10:48:32.226Z,60.58
2018-04-15T10:50:59.651Z,60.68
2018-04-15T10:53:27.029Z,59.99
2018-04-15T10:55:54.411Z,60.11
2018-04-15T10:58:21.792Z,55.02
2018-04-15T11:00:49.176Z,54.76
2018-04-15T11:03:16.552Z,53.23
2018-04-15T11:05:43.926Z,52.13
2018-04-15T11:08:11.323Z,51.67
2018-04-15T11:10:38.707Z,52.81
2018-04-15T11:13:06.082Z,54.97
2018-04-15T11:15:33.467Z,53.24
2018-04-15T11:18:00.849Z,51.59
2018-04-15T11:20:28.277Z,51.00
2018-04-15T11:22:55.655Z,53.42
2018-04-15T11:25:23.031Z,54.80
2018-04-15T11:27:50.418Z,56.69
2018-04-15T11:30:17.794Z,54.59
2018-04-15T11:32:45.166Z,52.40
2018-04-15T11:35:12.548Z,55.12
2018-04-15T11:37:39.927Z,51.21
2018-04-15T11:40:07.311Z,50.09
2018-04-15T11:42:34.687Z,51.56
2018-04-15T11:45:02.088Z,54.91
2018-04-15T11:47:29.479Z,52.87
2018-04-15T11:49:56.859Z,51.08
2018-04-15T11:52:24.239Z,53.38
2018-04-15T11:54:51.623Z,50.65
2018-04-15T11:57:19.004Z,52.60
2018-04-15T11:59:46.375Z,53.44
2018-04-15T12:02:13.786Z,50.07
2018-04-15T12:04:41.139Z,49.29
2018-04-15T12:07:08.514Z,50.86
2018-04-15T12:09:35.887Z,52.26
2018-04-15T12:12:03.278Z,51.67
2018-04-15T12:14:30.659Z,52.24
2018-04-15T12:16:58.063Z,51.13
2018-04-15T12:19:25.442Z,50.53
2018-04-15T12:21:53.271Z,52.25
2018-04-15T12:24:20.651Z,52.99
2018-04-15T12:26:48.067Z,47.73
2018-04-15T12:29:15.412Z,47.99
2018-04-15T12:31:42.792Z,49.15
2018-04-15T12:34:10.254Z,50.70
2018-04-15T12:36:37.738Z,51.12
2018-04-15T12:39:05.906Z,49.81
2018-04-15T12:41:33.290Z,49.52
2018-04-15T12:44:00.668Z,45.79
2018-04-15T12:46:28.058Z,45.34
2018-04-15T12:48:55.447Z,47.67
2018-04-15T12:51:23.015Z,45.00
2018-04-15T12:53:50.407Z,44.61
2018-04-15T12:56:17.805Z,49.17
2018-04-15T12:58:45.190Z,49.49
2018-04-15T13:01:12.583Z,46.21
2018-04-15T13:03:40.083Z,47.73
2018-04-15T13:06:07.541Z,49.71
2018-04-15T13:08:34.887Z,48.97
2018-04-15T13:11:02.262Z,46.11
2018-04-15T13:13:29.762Z,44.34
2018-04-15T13:15:57.151Z,45.09
2018-04-15T13:18:24.538Z,41.71
2018-04-15T13:20:51.929Z,45.48
2018-04-15T13:23:19.396Z,43.70
2018-04-15T13:25:46.820Z,42.47
2018-04-15T13:28:14.194Z,46.74
2018-04-15T13:30:41.633Z,45.10
2018-04-15T13:33:08.995Z,43.76
2018-04-15T13:35:36.374Z,42.64
2018-04-15T13:38:03.755Z,41.39
2018-04-15T13:40:31.152Z,44.86
2018-04-15T13:42:58.535Z,47.85
2018-04-15T13:45:25.929Z,45.07
2018-04-15T13:47:53.306Z,45.44
2018-04-15T13:50:20.755Z,44.13
2018-04-15T13:52:48.143Z,43.49
2018-04-15T13:55:15.517Z,46.83
2018-04-15T13:57:42.902Z,45.25
2018-04-15T14:00:10.295Z,49.09
2018-04-15T14:02:37.685Z,46.12
2018-04-15T14:05:05.059Z,42.30
2018-04-15T14:07:32.446Z,45.44
2018-04-15T14:09:59.879Z,45.32
2018-04-15T14:12:27.267Z,45.96
2018-04-15T14:14:54.634Z,43.59
2018-04-15T14:17:22.019Z,43.16
2018-04-15T14:19:49.435Z,43.19
2018-04-15T14:22:16.820Z,43.52
2018-04-15T14:24:44.225Z,43.95
2018-04-15T14:27:11.647Z,42.55
2018-04-15T14:29:39.023Z,44.04
2018-04-15T14:32:06.399Z,43.33
2018-04-15T14:34:33.839Z,44.38
2018-04-15T14:37:01.224Z,44.14
2018-04-15T14:39:28.878Z,46.45
2018-04-15T14:41:56.262Z,44.07
2018-04-15T14:44:23.846Z,43.78
2018-04-15T14:46:51.348Z,44.83
2018-04-15T14:49:18.766Z,45.56
2018-04-15T14:51:46.176Z,45.90
2018-04-15T14:54:13.551Z,47.65
2018-04-15T14:56:40.934Z,46.67
2018-04-15T14:59:08.444Z,45.37
2018-04-15T15:01:36.060Z,44.93
2018-04-15T15:04:03.451Z,46.22
2018-04-15T15:06:30.839Z,45.82
2018-04-15T15:08:58.254Z,45.71
2018-04-15T15:11:25.687Z,45.16
2018-04-15T15:13:53.066Z,48.65
2018-04-15T15:16:20.445Z,46.64
2018-04-15T15:18:47.820Z,47.82
2018-04-15T15:21:15.190Z,47.47
2018-04-15T15:23:42.574Z,49.84
2018-04-15T15:26:09.987Z,49.29
2018-04-15T15:28:37.415Z,47.85
2018-04-15T15:31:04.832Z,49.64
2018-04-15T15:33:32.216Z,47.78
2018-04-15T15:35:59.624Z,47.67
2018-04-15T15:38:27.000Z,47.00
2018-04-15T15:40:54.383Z,46.61
2018-04-15T15:43:21.765Z,47.36
2018-04-15T15:45:49.172Z,48.06
2018-04-15T15:48:16.645Z,45.84
2018-04-15T15:50:44.223Z,44.84
2018-04-15T15:53:11.620Z,44.92
2018-04-15T15:55:39.063Z,46.61
2018-04-15T15:58:06.456Z,46.08
2018-04-15T16:00:33.848Z,45.43
2018-04-15T16:03:01.235Z,45.12
2018-04-15T16:05:28.729Z,46.48
2018-04-15T16:07:56.151Z,46.83
2018-04-15T16:10:23.534Z,47.75
2018-04-15T16:12:51.154Z,47.17
2018-04-15T16:15:18.534Z,46.67
2018-04-15T16:17:45.923Z,47.91
2018-04-15T16:20:13.312Z,48.59
2018-04-15T16:22:40.685Z,49.06
2018-04-15T16:25:08.074Z,48.79
2018-04-15T16:27:35.538Z,48.90
2018-04-15T16:30:02.923Z,50.08
2018-04-15T16:32:30.515Z,49.89
2018-04-15T16:34:57.953Z,49.13
2018-04-15T16:37:25.335Z,49.72
2018-04-15T16:39:52.715Z,49.18
2018-04-15T16:42:20.123Z,49.79
2018-04-15T16:44:47.498Z,49.10
2018-04-15T16:47:14.903Z,49.40
2018-04-15T16:49:42.282Z,50.45
2018-04-15T16:52:09.731Z,49.55
2018-04-15T16:54:37.103Z,49.54
2018-04-15T16:57:04.490Z,50.70
2018-04-15T16:59:31.887Z,50.74
2018-04-15T17:01:59.266Z,52.07
2018-04-15T17:04:26.733Z,53.07
2018-04-15T17:06:54.114Z,53.61
2018-04-15T17:09:21.534Z,52.43
2018-04-15T17:11:48.999Z,53.69
2018-04-15T17:14:16.511Z,53.36
2018-04-15T17:16:43.991Z,54.17
2018-04-15T17:19:11.464Z,52.97
2018-04-15T17:21:38.932Z,52.96
2018-04-15T17:24:06.407Z,53.06
2018-04-15T17:26:33.848Z,52.99
2018-04-15T17:29:01.221Z,52.85
2018-04-15T17:31:28.608Z,52.71
2018-04-15T17:33:56.166Z,53.51
2018-04-15T17:36:23.591Z,54.21
2018-04-15T17:38:50.979Z,52.97
2018-04-15T17:41:18.366Z,53.55
2018-04-15T17:43:45.742Z,53.87
2018-04-15T17:46:13.135Z,54.48
2018-04-15T17:48:40.519Z,55.30
2018-04-15T17:51:07.909Z,56.19
2018-04-15T17:53:35.295Z,56.25
2018-04-15T17:56:02.679Z,54.97
2018-04-15T17:58:30.263Z,56.33
2018-04-15T18:00:57.647Z,57.27
2018-04-15T18:03:25.032Z,57.36
2018-04-15T18:05:52.418Z,56.88
2018-04-15T18:08:19.803Z,57.71
2018-04-15T18:10:47.206Z,58.23
2018-04-15T18:13:14.599Z,59.09
2018-04-15T18:15:41.982Z,58.86
2018-04-15T18:18:09.352Z,58.27
2018-04-15T18:20:36.735Z,58.69
2018-04-15T18:23:04.123Z,57.89
2018-04-15T18:25:31.503Z,57.64
2018-04-15T18:27:58.876Z,57.88
2018-04-15T18:30:26.254Z,58.75
2018-04-15T18:32:53.623Z,60.25
2018-04-15T18:35:21.010Z,60.49
2018-04-15T18:37:48.399Z,60.15
2018-04-15T18:40:15.782Z,60.62
2018-04-15T18:42:43.204Z,61.99
2018-04-15T18:45:10.584Z,63.40
2018-04-15T18:47:37.974Z,64.69
2018-04-15T18:50:05.445Z,65.20
2018-04-15T18:52:32.743Z,65.74
2018-04-15T18:55:00.119Z,65.58
2018-04-15T18:57:27.507Z,65.36
2018-04-15T18:59:54.887Z,65.19
2018-04-15T19:02:22.408Z,64.22
2018-04-15T19:04:49.811Z,64.12
2018-04-15T19:07:17.197Z,64.62
2018-04-15T19:09:44.605Z,65.17
2018-04-15T19:12:12.170Z,66.30
2018-04-15T19:14:39.571Z,66.04
2018-04-15T19:17:06.951Z,66.19
2018-04-15T19:19:34.363Z,66.11
2018-04-15T19:22:01.807Z,65.58
2018-04-15T19:24:29.182Z,66.96
2018-04-15T19:26:56.628Z,68.29
2018-04-15T19:29:24.015Z,68.56
2018-04-15T19:31:51.403Z,68.36
2018-04-15T19:34:18.800Z,68.37
2018-04-15T19:36:46.240Z,69.22
2018-04-15T19:39:13.643Z,69.40
2018-04-15T19:41:41.028Z,68.30
2018-04-15T19:44:08.467Z,69.02
2018-04-15T19:46:35.855Z,69.20
2018-04-15T19:49:03.244Z,69.64
2018-04-15T19:51:30.643Z,70.86
2018-04-15T19:53:58.027Z,71.60
2018-04-15T19:56:25.411Z,70.90
2018-04-15T19:58:52.794Z,70.85
2018-04-15T20:01:20.178Z,71.48
2018-04-15T20:03:47.574Z,71.66
2018-04-15T20:06:14.958Z,71.05
2018-04-15T20:08:42.357Z,71.78
2018-04-15T20:11:09.761Z,71.47
2018-04-15T20:13:37.116Z,71.26
2018-04-15T20:16:04.506Z,72.41
2018-04-15T20:18:31.891Z,73.22
2018-04-15T20:20:59.283Z,73.06
2018-04-15T20:23:26.675Z,73.83
2018-04-15T20:25:54.058Z,74.20
2018-04-15T20:28:21.438Z,74.40
2018-04-15T20:30:48.826Z,73.70
2018-04-15T20:33:16.227Z,73.50
2018-04-15T20:35:43.607Z,73.40
2018-04-15T20:38:10.991Z,73.88
2018-04-15T20:40:38.382Z,74.67
2018-04-15T20:43:05.766Z,75.10
2018-04-15T20:45:33.155Z,75.48
2018-04-15T20:48:00.543Z,75.82
2018-04-15T20:50:27.938Z,75.89
2018-04-15T20:52:55.327Z,76.19
2018-04-15T20:55:22.716Z,76.20
2018-04-15T20:57:50.124Z,76.34
2018-04-15T21:00:17.503Z,76.40
2018-04-15T21:02:44.887Z,76.35
2018-04-15T21:05:12.263Z,76.36
2018-04-15T21:07:39.658Z,76.44
2018-04-15T21:10:07.043Z,76.22
2018-04-15T21:12:34.426Z,76.64
2018-04-15T21:15:02.318Z,76.96
2018-04-15T21:17:29.699Z,77.20
2018-04-15T21:19:57.086Z,76.96
2018-04-15T21:22:24.469Z,76.82
2018-04-15T21:24:52.275Z,76.94
2018-04-15T21:27:19.654Z,76.97
2018-04-15T21:29:47.035Z,77.35
2018-04-15T21:32:14.431Z,78.05
2018-04-15T21:34:41.811Z,78.31
2018-04-15T21:37:09.198Z,78.16
2018-04-15T21:39:36.579Z,77.35
2018-04-15T21:42:03.971Z,77.24
2018-04-15T21:44:31.347Z,77.53
2018-04-15T21:46:58.735Z,78.07
2018-04-15T21:49:26.179Z,78.56
2018-04-15T21:51:53.559Z,78.77
2018-04-15T21:54:20.951Z,79.06
2018-04-15T21:56:48.331Z,79.29
2018-04-15T21:59:16.075Z,79.83
2018-04-15T22:01:43.455Z,80.34
2018-04-15T22:04:10.839Z,80.62
2018-04-15T22:06:38.226Z,80.54
2018-04-15T22:09:05.611Z,80.37
2018-04-15T22:11:44.731Z,80.41
2018-04-15T22:14:12.115Z,80.58
2018-04-15T22:16:39.503Z,80.99
2018-04-15T22:19:06.985Z,81.63
2018-04-15T22:21:34.362Z,82.02
2018-04-15T22:24:01.755Z,82.42
2018-04-15T22:26:29.135Z,82.56
2018-04-15T22:28:56.523Z,82.45
2018-04-15T22:31:23.899Z,83.10
2018-04-15T22:33:51.296Z,83.51
2018-04-15T22:36:18.671Z,83.51
2018-04-15T22:38:46.054Z,83.59
2018-04-15T22:41:13.441Z,84.23
2018-04-15T22:43:40.822Z,84.99
2018-04-15T22:46:08.215Z,85.07
2018-04-15T22:48:41.239Z,85.41
2018-04-15T22:51:08.650Z,85.56
2018-04-15T22:53:36.035Z,85.79
2018-04-15T22:56:09.407Z,85.89
2018-04-15T22:58:42.435Z,86.14
2018-04-15T23:01:09.826Z,86.34
2018-04-15T23:03:37.206Z,86.49
2018-04-15T23:06:04.591Z,86.52
2018-04-15T23:08:31.979Z,86.73
2018-04-15T23:10:59.358Z,86.29
2018-04-15T23:13:26.751Z,86.48
2018-04-15T23:15:54.127Z,86.69
2018-04-15T23:18:21.535Z,86.73
2018-04-15T23:20:48.914Z,87.07
2018-04-15T23:23:16.302Z,87.37
2018-04-15T23:25:43.690Z,87.03
2018-04-15T23:28:11.078Z,86.90
2018-04-15T23:30:38.482Z,86.94
2018-04-15T23:33:05.863Z,86.95
2018-04-15T23:35:33.268Z,87.03
2018-04-15T23:38:00.711Z,87.53
2018-04-15T23:40:28.091Z,87.29
2018-04-15T23:42:55.487Z,87.37
2018-04-15T23:45:22.872Z,87.67
2018-04-15T23:47:50.274Z,87.96
2018-04-15T23:50:17.660Z,88.21
2018-04-15T23:52:45.067Z,88.35
2018-04-15T23:55:12.451Z,88.52
2018-04-15T23:57:39.830Z,88.50
